Jurupa, California
Current Conditions -  °F | °C
As of 9:53 PM on Saturday 25 Oct 2014 (Local Time) from KRAL Reporting Station
Clear Clear  
Wind Chill: 67°   Ceiling: Unl
Heat Index: 67°   Visibility: 10mi
Dew Point: 52°   Wind: 3mph
Humidity: 59%   Direction: 20°NNE
Pressure: 30.03"   Gusts: NA
Location:  34.0033°N, 117.446°W
Report Text: KRAL 260453Z AUTO 02003KT 10SM CLR 19/11 A3003 RMK AO2 SLP154 T01940111
Loading
Personal Weather Stations






























Interactive Weather Map
Tropical Storm Tracking
New forecast layout! Learn more

10-Day Weather Forecast

Advertisements
Track Severe Weather on mobile